Time;durP1;ratioP1;P1;durP2;ratioP2;P2;SDS_P1;SDS_P2;PMS_P1;PMS_P2;Temp;Humidity;BMP_temperature;BMP_pressure;BME280_temperature;BME280_humidity;BME280_pressure;Samples;Min_cycle;Max_cycle;Signal;HPM_P1;HPM_P2
2023/09/05 00:00:44;;;;;;;5.07;4.55;;;;;;;11.58;100.00;93561.81;2539950;23;20519;-94
2023/09/05 00:01:48;;;;;;;6.53;4.40;;;;;;;11.49;100.00;93558.91;2537729;23;20080;-93
2023/09/05 00:02:51;;;;;;;4.38;3.85;;;;;;;11.44;100.00;93561.31;2549952;23;19998;-94
2023/09/05 00:03:53;;;;;;;5.10;4.10;;;;;;;11.47;100.00;93558.59;2562448;23;20056;-94
2023/09/05 00:04:57;;;;;;;10.15;4.45;;;;;;;11.54;100.00;93555.75;2549485;23;20010;-93
2023/09/05 00:06:08;;;;;;;6.18;4.35;;;;;;;11.49;100.00;93560.84;2549920;23;20037;-93
2023/09/05 00:07:20;;;;;;;5.38;4.07;;;;;;;11.53;100.00;93558.84;2544487;23;20001;-93
2023/09/05 00:08:23;;;;;;;7.15;4.22;;;;;;;11.38;100.00;93558.38;2550592;23;20028;-94
2023/09/05 00:09:29;;;;;;;4.40;4.00;;;;;;;11.38;100.00;93561.06;2549708;23;20120;-95
2023/09/05 00:10:31;;;;;;;4.80;4.30;;;;;;;11.38;100.00;93558.38;2538585;23;20148;-92
2023/09/05 00:13:31;;;;;;;5.75;4.05;;;;;;;11.31;100.00;93545.84;2571697;23;20011;-92
2023/09/05 00:14:33;;;;;;;4.45;3.95;;;;;;;11.40;100.00;93556.03;2549537;23;20080;-93
2023/09/05 00:15:37;;;;;;;5.38;4.30;;;;;;;11.37;100.00;93548.06;2536694;23;20008;-93
2023/09/05 00:16:41;;;;;;;5.38;4.43;;;;;;;11.22;100.00;93550.25;2538012;23;20036;-95
2023/09/05 00:17:45;;;;;;;6.22;3.92;;;;;;;11.13;100.00;93550.75;2537385;23;20001;-94
2023/09/05 00:18:49;;;;;;;4.63;4.22;;;;;;;11.21;100.00;93540.69;2537301;23;20002;-92
2023/09/05 00:19:55;;;;;;;5.63;4.40;;;;;;;11.13;100.00;93547.34;2537125;23;20006;-93
2023/09/05 00:20:56;;;;;;;4.63;4.22;;;;;;;11.15;100.00;93553.81;2538195;23;20006;-94
2023/09/05 00:22:04;;;;;;;5.10;4.60;;;;;;;11.12;100.00;93545.81;2539287;23;20033;-94
2023/09/05 00:23:20;;;;;;;4.25;3.85;;;;;;;11.19;100.00;93541.09;2537032;23;20512;-95
2023/09/05 00:24:44;;;;;;;5.15;4.40;;;;;;;11.16;100.00;93544.59;2543502;23;20029;-94
2023/09/05 00:25:45;;;;;;;4.95;4.13;;;;;;;11.03;100.00;93546.34;2541138;23;20008;-94
2023/09/05 00:26:51;;;;;;;4.65;4.15;;;;;;;11.07;100.00;93541.72;2538698;23;20060;-92
2023/09/05 00:27:53;;;;;;;4.60;4.10;;;;;;;11.07;100.00;93541.72;2537286;23;20057;-92
2023/09/05 00:28:56;;;;;;;4.70;4.30;;;;;;;11.09;100.00;93540.13;2525276;23;20034;-92
2023/09/05 00:30:03;;;;;;;4.72;4.22;;;;;;;11.15;100.00;93545.00;2526156;23;20010;-92
2023/09/05 00:31:04;;;;;;;7.03;4.53;;;;;;;11.17;100.00;93537.34;2527090;23;20026;-91
2023/09/05 00:32:09;;;;;;;4.50;4.10;;;;;;;11.21;100.00;93543.38;2524648;23;20003;-92
2023/09/05 00:33:13;;;;;;;5.95;4.57;;;;;;;11.23;100.00;93535.69;2538560;23;20140;-93
2023/09/05 00:34:20;;;;;;;4.32;3.90;;;;;;;11.18;100.00;93539.59;2525169;23;20002;-93
2023/09/05 00:35:21;;;;;;;7.60;4.43;;;;;;;11.03;100.00;93538.34;2538036;23;20006;-93
2023/09/05 00:36:27;;;;;;;6.70;4.30;;;;;;;11.29;100.00;93536.75;2524801;23;20010;-92
2023/09/05 00:37:30;;;;;;;4.85;4.40;;;;;;;11.31;100.00;93537.06;2527259;23;20002;-93
2023/09/05 00:38:33;;;;;;;5.68;4.40;;;;;;;11.30;100.00;93532.91;2536958;23;20010;-93
2023/09/05 00:39:41;;;;;;;5.18;4.68;;;;;;;11.32;100.00;93533.97;2549481;23;20005;-92
2023/09/05 00:40:43;;;;;;;5.13;4.63;;;;;;;11.19;100.00;93533.06;2549811;23;20053;-93
2023/09/05 00:41:45;;;;;;;4.38;3.97;;;;;;;11.13;100.00;93536.63;2560630;23;20005;-94
2023/09/05 00:42:49;;;;;;;6.00;4.43;;;;;;;11.09;100.00;93537.44;2524206;23;20002;-93
2023/09/05 00:43:53;;;;;;;6.18;4.20;;;;;;;11.05;100.00;93538.66;2536341;23;20453;-94
2023/09/05 00:44:58;;;;;;;5.97;4.43;;;;;;;11.14;100.00;93538.13;2548211;23;20084;-93
2023/09/05 00:45:59;;;;;;;4.72;4.20;;;;;;;11.00;100.00;93537.22;2536605;23;20010;-93
2023/09/05 00:47:11;;;;;;;6.05;4.50;;;;;;;10.98;100.00;93534.22;2535592;23;20082;-94
2023/09/05 00:48:12;;;;;;;6.80;4.45;;;;;;;11.01;100.00;93533.38;2537933;23;20005;-94
2023/09/05 00:49:15;;;;;;;6.85;4.43;;;;;;;11.06;100.00;93537.50;2523982;23;20003;-95
2023/09/05 00:50:18;;;;;;;7.97;4.35;;;;;;;10.98;100.00;93536.13;2525187;23;20007;-94
2023/09/05 00:51:20;;;;;;;5.18;4.47;;;;;;;11.00;100.00;93536.47;2524635;23;19998;-93
2023/09/05 00:52:39;;;;;;;6.60;4.57;;;;;;;11.19;100.00;93538.41;2524548;23;20473;-94
2023/09/05 00:55:40;;;;;;;4.43;4.03;;;;;;;11.00;100.00;93533.78;2558417;23;20223;-93
2023/09/05 00:56:45;;;;;;;5.75;4.13;;;;;;;10.95;100.00;93536.94;2535487;23;20311;-94
2023/09/05 00:57:46;;;;;;;4.70;4.20;;;;;;;10.89;100.00;93533.97;2537196;23;19998;-94
2023/09/05 00:58:48;;;;;;;6.88;4.72;;;;;;;11.00;100.00;93531.13;2535834;23;20395;-94
2023/09/05 00:59:52;;;;;;;5.25;4.32;;;;;;;10.87;100.00;93530.94;2524000;23;20018;-93
2023/09/05 01:00:58;;;;;;;4.88;4.35;;;;;;;10.95;100.00;93535.00;2536640;23;20022;-93
2023/09/05 01:02:04;;;;;;;4.75;4.32;;;;;;;10.91;100.00;93520.94;2526114;23;20033;-94
2023/09/05 01:03:06;;;;;;;6.20;4.75;;;;;;;10.84;100.00;93521.03;2524659;23;20006;-93
2023/09/05 01:04:08;;;;;;;4.82;4.32;;;;;;;10.82;100.00;93518.78;2523875;23;20002;-94
2023/09/05 01:05:13;;;;;;;4.85;4.30;;;;;;;10.88;100.00;93526.34;2523953;23;20078;-92
2023/09/05 01:06:53;;;;;;;6.80;4.35;;;;;;;10.77;100.00;93521.19;2537367;23;20001;-92
2023/09/05 01:08:12;;;;;;;8.27;4.63;;;;;;;10.75;100.00;93520.81;2521939;23;20490;-94
2023/09/05 01:09:28;;;;;;;5.20;4.22;;;;;;;10.80;100.00;93525.72;2539215;23;19997;-93
2023/09/05 01:11:09;;;;;;;6.70;4.35;;;;;;;10.82;100.00;93521.47;2529893;23;20006;-92
2023/09/05 01:12:10;;;;;;;4.57;4.10;;;;;;;10.71;100.00;93531.59;2534670;23;20012;-92
2023/09/05 01:13:11;;;;;;;6.22;4.70;;;;;;;10.55;100.00;93526.84;2523423;23;20097;-92
2023/09/05 01:14:16;;;;;;;5.85;4.60;;;;;;;10.67;100.00;93528.22;2523492;23;20006;-92
2023/09/05 01:15:20;;;;;;;6.20;4.65;;;;;;;10.70;100.00;93527.38;2536687;23;20030;-92
2023/09/05 01:16:32;;;;;;;6.95;4.35;;;;;;;10.72;100.00;93530.41;2535779;23;20426;-94
2023/09/05 01:17:34;;;;;;;5.63;4.45;;;;;;;10.76;100.00;93531.13;2528499;23;20061;-93
2023/09/05 01:18:39;;;;;;;5.07;4.28;;;;;;;10.71;100.00;93528.13;2535158;23;20116;-93
2023/09/05 01:19:41;;;;;;;7.45;4.38;;;;;;;10.58;100.00;93538.66;2525342;23;20002;-93
2023/09/05 01:21:13;;;;;;;4.82;4.30;;;;;;;10.68;100.00;93534.31;2536246;23;20010;-93
2023/09/05 01:22:48;;;;;;;5.05;4.40;;;;;;;10.61;100.00;93531.72;2499234;23;20007;-94
2023/09/05 01:24:11;;;;;;;7.40;4.60;;;;;;;10.55;100.00;93532.19;2550609;23;19997;-93
2023/09/05 01:25:13;;;;;;;6.10;4.60;;;;;;;10.69;100.00;93527.78;2548130;23;20328;-92
2023/09/05 01:26:17;;;;;;;6.10;4.45;;;;;;;10.72;100.00;93535.75;2523626;23;20002;-93
2023/09/05 01:27:24;;;;;;;6.15;4.82;;;;;;;10.75;100.00;93537.59;2524322;23;20013;-93
2023/09/05 01:28:27;;;;;;;4.90;4.25;;;;;;;10.75;100.00;93531.50;2525834;23;20010;-94
2023/09/05 01:29:35;;;;;;;4.35;3.95;;;;;;;10.76;100.00;93525.03;2523787;23;20033;-93
2023/09/05 01:30:39;;;;;;;4.75;4.20;;;;;;;10.66;100.00;93528.59;2537706;23;20405;-94
2023/09/05 01:31:41;;;;;;;5.18;4.68;;;;;;;10.51;100.00;93534.16;2547226;23;20009;-95
2023/09/05 01:32:43;;;;;;;6.95;5.22;;;;;;;10.48;100.00;93531.53;2534966;23;20006;-94
2023/09/05 01:33:44;;;;;;;6.47;4.57;;;;;;;10.54;100.00;93529.94;2535512;23;20056;-93
2023/09/05 01:34:48;;;;;;;5.93;4.70;;;;;;;10.55;100.00;93526.84;2535470;23;20030;-93
2023/09/05 01:35:58;;;;;;;8.23;4.43;;;;;;;10.45;100.00;93533.13;2524293;23;20010;-93
2023/09/05 01:37:27;;;;;;;5.07;4.35;;;;;;;10.43;100.00;93524.72;2536723;23;20006;-92
2023/09/05 01:38:37;;;;;;;4.65;4.20;;;;;;;10.47;100.00;93535.38;2541039;23;20009;-93
2023/09/05 01:39:38;;;;;;;5.90;4.28;;;;;;;10.38;100.00;93527.88;2536441;23;20058;-93
2023/09/05 01:40:42;;;;;;;5.53;4.65;;;;;;;10.39;100.00;93534.72;2522864;23;20010;-95
2023/09/05 01:41:44;;;;;;;5.15;4.10;;;;;;;10.49;100.00;93527.69;2523655;23;20085;-95
2023/09/05 01:42:47;;;;;;;7.40;4.95;;;;;;;10.53;100.00;93531.06;2535015;23;20014;-93
2023/09/05 01:43:52;;;;;;;5.75;4.43;;;;;;;10.53;100.00;93531.81;2523867;23;20334;-93
2023/09/05 01:44:55;;;;;;;5.00;4.50;;;;;;;10.38;100.00;93527.88;2546605;23;20012;-95
2023/09/05 01:45:59;;;;;;;7.07;4.13;;;;;;;10.28;100.00;93534.13;2535982;23;20005;-94
2023/09/05 01:47:05;;;;;;;6.38;4.30;;;;;;;10.38;100.00;93535.13;2525759;23;20006;-94
2023/09/05 01:48:09;;;;;;;5.70;4.78;;;;;;;10.37;100.00;93533.63;2523526;23;20006;-94
2023/09/05 01:49:13;;;;;;;5.05;4.53;;;;;;;10.31;100.00;93527.94;2535570;23;20006;-93
2023/09/05 01:50:19;;;;;;;7.88;4.63;;;;;;;10.33;100.00;93536.34;2536231;23;20036;-95
2023/09/05 01:51:23;;;;;;;6.20;4.60;;;;;;;10.20;100.00;93538.00;2536039;23;20460;-94
2023/09/05 01:52:27;;;;;;;10.00;4.60;;;;;;;10.35;100.00;93534.00;2535267;23;20001;-94
2023/09/05 01:53:31;;;;;;;7.20;4.90;;;;;;;10.36;100.00;93532.88;2523895;23;20451;-92
2023/09/05 01:54:33;;;;;;;6.82;4.60;;;;;;;10.21;100.00;93532.25;2523424;23;20457;-93
2023/09/05 01:55:39;;;;;;;7.18;4.90;;;;;;;10.29;100.00;93524.94;2534787;23;20002;-94
2023/09/05 01:56:40;;;;;;;5.20;4.45;;;;;;;10.25;100.00;93529.56;2524338;23;20426;-92
2023/09/05 01:57:44;;;;;;;10.27;5.07;;;;;;;10.22;100.00;93528.44;2534663;23;20013;-93
2023/09/05 01:58:48;;;;;;;6.00;4.28;;;;;;;10.29;100.00;93530.28;2535929;23;20013;-93
2023/09/05 01:59:52;;;;;;;7.35;4.70;;;;;;;10.25;100.00;93533.00;2535115;23;20010;-91
2023/09/05 02:01:01;;;;;;;5.85;4.30;;;;;;;10.20;100.00;93527.34;2523558;23;20049;-94
2023/09/05 02:02:03;;;;;;;4.93;4.23;;;;;;;10.19;100.00;93526.56;2538222;23;20001;-93
2023/09/05 02:03:06;;;;;;;7.35;4.60;;;;;;;10.08;100.00;93529.38;2535289;23;20429;-94
2023/09/05 02:04:07;;;;;;;6.03;4.60;;;;;;;10.14;100.00;93536.94;2535140;23;20433;-95
2023/09/05 02:05:13;;;;;;;6.80;4.88;;;;;;;10.09;100.00;93528.22;2522889;23;20016;-93
2023/09/05 02:06:17;;;;;;;6.00;4.13;;;;;;;10.05;100.00;93530.19;2536190;23;20013;-92
2023/09/05 02:07:25;;;;;;;6.55;4.53;;;;;;;10.09;100.00;93524.78;2535249;23;20350;-94
2023/09/05 02:08:27;;;;;;;9.02;5.45;;;;;;;10.18;100.00;93532.31;2525262;23;20010;-92
2023/09/05 02:09:30;;;;;;;7.40;4.65;;;;;;;10.07;100.00;93530.53;2523319;23;20022;-94
2023/09/05 02:10:34;;;;;;;6.82;4.40;;;;;;;10.05;100.00;93538.22;2522973;23;20002;-92
2023/09/05 02:11:37;;;;;;;5.85;4.35;;;;;;;10.00;100.00;93537.88;2546758;23;20002;-94
2023/09/05 02:12:44;;;;;;;7.53;4.32;;;;;;;9.99;100.00;93529.13;2523155;23;20026;-94
2023/09/05 02:13:48;;;;;;;5.82;4.60;;;;;;;10.09;100.00;93536.22;2535971;23;20021;-93
2023/09/05 02:14:49;;;;;;;5.55;4.47;;;;;;;10.01;100.00;93532.16;2535355;23;20058;-93
2023/09/05 02:15:53;;;;;;;4.82;4.32;;;;;;;10.09;100.00;93530.88;2534710;23;20061;-93
2023/09/05 02:16:57;;;;;;;6.80;4.30;;;;;;;9.99;100.00;93531.78;2523986;23;20152;-92
2023/09/05 02:18:02;;;;;;;6.28;4.72;;;;;;;9.94;100.00;93532.25;2528125;23;20017;-92
2023/09/05 02:19:05;;;;;;;4.70;4.30;;;;;;;10.02;100.00;93530.25;2536159;23;20005;-95
2023/09/05 02:20:09;;;;;;;7.10;4.57;;;;;;;9.87;100.00;93531.56;2535767;23;20025;-92
2023/09/05 10:12:25;;;;;;;2.55;2.30;;;;;;;23.36;77.10;93485.56;2571095;22;20001;-88
2023/09/05 10:13:30;;;;;;;4.53;2.53;;;;;;;23.41;81.02;93486.09;2544307;23;20631;-86
2023/09/05 10:14:31;;;;;;;2.88;2.35;;;;;;;23.43;77.00;93481.63;2521601;23;20123;-86
2023/09/05 10:15:35;;;;;;;4.55;2.50;;;;;;;23.51;81.57;93485.38;2519803;23;20010;-85
2023/09/05 10:16:42;;;;;;;6.00;2.40;;;;;;;23.44;72.97;93485.09;2521434;23;20002;-89
2023/09/05 10:17:44;;;;;;;3.10;2.33;;;;;;;23.64;76.09;93484.94;2509319;23;20019;-88
2023/09/05 10:18:47;;;;;;;4.57;2.20;;;;;;;23.69;77.42;93483.47;2520762;23;20011;-89
2023/09/05 10:19:50;;;;;;;2.83;2.30;;;;;;;23.59;69.47;93480.94;2519487;23;20448;-87
2023/09/05 10:20:54;;;;;;;3.15;1.95;;;;;;;23.76;74.11;93478.31;2508487;23;20054;-87
2023/09/05 10:22:01;;;;;;;4.03;2.47;;;;;;;23.63;81.56;93478.72;2511051;23;20010;-88
2023/09/05 10:23:05;;;;;;;5.85;2.45;;;;;;;23.59;79.91;93482.94;2521292;23;20037;-87
2023/09/05 10:24:06;;;;;;;3.65;2.03;;;;;;;23.68;81.06;93479.28;2521565;23;20460;-87
2023/09/05 10:25:11;;;;;;;6.28;2.50;;;;;;;23.54;67.13;93476.22;2508639;23;20006;-87
2023/09/05 12:01:43;;;;;;;1.30;0.88;;;;;;;25.94;42.54;93457.41;2484317;23;20542;-87
2023/09/05 13:37:12;;;;;;;1.55;0.70;;;;;;;27.75;37.55;93342.66;2538711;23;20040;-85
2023/09/05 14:09:22;;;;;;;1.80;0.60;;;;;;;27.97;33.48;93325.09;2495435;23;20038;-85
2023/09/05 14:10:23;;;;;;;1.90;0.70;;;;;;;27.95;33.77;93332.38;2515178;23;20430;-87
2023/09/05 14:11:24;;;;;;;3.92;0.82;;;;;;;27.78;33.26;93327.13;2520222;23;20118;-85
2023/09/05 14:12:26;;;;;;;0.65;0.60;;;;;;;27.91;33.51;93331.94;2532297;23;20821;-87
2023/09/05 14:13:27;;;;;;;0.80;0.75;;;;;;;27.89;35.61;93334.47;2520561;23;20006;-86
2023/09/05 14:14:28;;;;;;;1.85;0.65;;;;;;;27.73;32.66;93334.19;2520030;23;20386;-86
2023/09/05 14:15:29;;;;;;;1.17;0.70;;;;;;;27.90;33.63;93336.69;2520256;23;20450;-85
2023/09/05 14:16:30;;;;;;;2.28;0.70;;;;;;;27.98;33.60;93336.81;2520091;23;20002;-85
2023/09/05 14:17:31;;;;;;;5.05;0.77;;;;;;;27.91;34.22;93335.41;2544352;23;19998;-88
2023/09/05 14:18:32;;;;;;;2.05;0.60;;;;;;;27.73;37.54;93331.44;2531844;23;20089;-87
2023/09/05 14:19:33;;;;;;;0.95;0.90;;;;;;;27.91;32.97;93329.94;2507876;23;20003;-86
2023/09/05 14:20:34;;;;;;;1.77;0.57;;;;;;;27.75;33.34;93328.94;2508150;23;20007;-85
2023/09/05 14:21:38;;;;;;;1.58;0.55;;;;;;;27.59;33.49;93332.63;2509168;23;20006;-85
2023/09/05 14:22:39;;;;;;;5.25;0.73;;;;;;;27.64;35.20;93325.56;2520981;23;20522;-87
2023/09/05 14:23:41;;;;;;;2.15;0.80;;;;;;;27.53;34.15;93326.47;2531753;23;20006;-85
2023/09/05 14:24:41;;;;;;;4.82;0.77;;;;;;;27.56;35.06;93331.66;2532150;23;20004;-87
2023/09/05 14:25:43;;;;;;;2.05;0.70;;;;;;;27.67;35.10;93324.53;2532085;23;20033;-87
2023/09/05 14:26:46;;;;;;;1.05;0.75;;;;;;;27.52;36.28;93327.72;2520388;23;20034;-85
2023/09/05 14:27:47;;;;;;;1.85;0.80;;;;;;;27.64;33.47;93325.56;2520118;23;20357;-86
2023/09/05 14:28:48;;;;;;;2.85;0.80;;;;;;;27.64;35.50;93325.56;2531896;23;20033;-86
2023/09/05 14:29:49;;;;;;;2.05;0.65;;;;;;;27.69;33.57;93317.25;2531885;23;20049;-85
2023/09/05 14:30:50;;;;;;;1.45;0.80;;;;;;;27.73;34.39;93317.72;2519437;23;20078;-86
2023/09/05 14:31:51;;;;;;;1.40;0.73;;;;;;;27.65;37.28;93318.81;2507905;23;20619;-86
2023/09/05 14:32:54;;;;;;;2.55;0.70;;;;;;;27.68;37.41;93318.50;2520155;23;20006;-86
2023/09/05 14:33:55;;;;;;;0.98;0.50;;;;;;;27.60;35.88;93318.38;2532187;23;20077;-85
2023/09/05 14:34:56;;;;;;;0.80;0.63;;;;;;;27.81;35.77;93321.34;2532161;23;20017;-86
2023/09/05 14:35:59;;;;;;;2.03;0.60;;;;;;;27.73;35.42;93316.97;2532028;23;20388;-88
2023/09/05 14:36:59;;;;;;;0.80;0.65;;;;;;;27.68;37.62;93309.53;2532355;23;20410;-86
2023/09/05 14:38:00;;;;;;;1.15;0.68;;;;;;;27.63;38.18;93313.84;2519871;23;20030;-84
2023/09/05 14:39:03;;;;;;;1.40;0.88;;;;;;;27.81;35.90;93317.84;2508147;23;20010;-87
2023/09/05 14:40:05;;;;;;;1.27;0.82;;;;;;;27.63;36.27;93315.84;2509103;23;20010;-87
2023/09/05 14:41:06;;;;;;;3.55;0.80;;;;;;;27.52;35.98;93306.50;2520558;23;20081;-86
2023/09/05 14:42:09;;;;;;;1.95;0.85;;;;;;;27.50;36.04;93309.03;2520303;23;20303;-86
2023/09/05 14:43:10;;;;;;;1.70;0.70;;;;;;;27.45;35.17;93309.13;2508362;23;20071;-86
2023/09/05 14:44:11;;;;;;;2.58;0.73;;;;;;;27.45;35.86;93311.88;2519884;23;20002;-87
2023/09/05 14:45:12;;;;;;;1.30;0.80;;;;;;;27.40;36.57;93310.69;2520172;23;20038;-88
2023/09/05 14:46:13;;;;;;;2.53;0.82;;;;;;;27.57;34.62;93316.69;2520323;23;20007;-88
2023/09/05 14:47:17;;;;;;;1.08;0.80;;;;;;;27.56;38.22;93312.44;2520338;23;20458;-88
2023/09/05 14:48:18;;;;;;;2.83;0.95;;;;;;;27.55;36.83;93312.97;2520506;23;20054;-87
2023/09/05 14:49:19;;;;;;;5.15;0.90;;;;;;;27.58;35.95;93315.41;2520274;23;20065;-88
2023/09/05 14:50:22;;;;;;;2.28;0.85;;;;;;;27.53;37.47;93310.00;2532185;23;20001;-86
2023/09/05 14:51:23;;;;;;;1.55;0.60;;;;;;;27.56;37.90;93306.94;2544411;23;20013;-87
2023/09/05 14:52:33;;;;;;;2.90;0.93;;;;;;;27.56;38.40;93311.69;2531985;23;20146;-88
2023/09/05 14:53:34;;;;;;;1.30;1.00;;;;;;;27.47;36.84;93312.06;2511893;23;20727;-88
2023/09/05 14:54:35;;;;;;;2.47;0.65;;;;;;;27.43;38.98;93311.63;2519513;23;20013;-89
2023/09/05 14:55:45;;;;;;;1.98;0.80;;;;;;;27.59;37.12;93305.91;2531367;23;20002;-86
2023/09/05 14:56:50;;;;;;;2.55;1.05;;;;;;;27.54;36.72;93303.97;2533466;23;20093;-86
2023/09/05 14:57:51;;;;;;;3.67;0.98;;;;;;;27.42;38.44;93305.41;2520870;23;20013;-86
2023/09/05 14:58:52;;;;;;;2.33;0.95;;;;;;;27.51;40.75;93313.25;2532028;23;20430;-86
2023/09/05 14:59:54;;;;;;;2.75;1.10;;;;;;;27.72;39.58;93316.22;2508014;23;20003;-86
2023/09/05 15:00:55;;;;;;;1.85;0.80;;;;;;;27.65;39.34;93308.56;2532555;23;20006;-85
2023/09/05 15:01:56;;;;;;;3.90;1.25;;;;;;;27.71;39.78;93314.00;2532108;23;20002;-86
2023/09/05 15:02:58;;;;;;;1.90;0.98;;;;;;;27.66;39.38;93306.56;2508303;23;20007;-87
2023/09/05 15:04:00;;;;;;;4.93;0.98;;;;;;;27.65;39.52;93305.06;2520208;23;20651;-88
2023/09/05 15:05:01;;;;;;;1.95;1.00;;;;;;;27.65;38.59;93307.81;2507625;23;20034;-87
2023/09/05 15:06:02;;;;;;;1.67;0.70;;;;;;;27.88;38.52;93309.00;2507697;23;20014;-87
2023/09/05 15:07:05;;;;;;;1.08;0.98;;;;;;;27.83;39.42;93313.31;2508322;23;20066;-87
2023/09/05 15:08:06;;;;;;;3.28;1.25;;;;;;;27.85;38.57;93310.78;2508563;23;20014;-86
2023/09/05 15:09:07;;;;;;;2.17;0.85;;;;;;;27.82;38.86;93302.84;2508244;23;20018;-87
2023/09/05 15:10:08;;;;;;;1.90;0.88;;;;;;;27.75;37.92;93311.72;2520046;23;20517;-87
2023/09/05 15:11:09;;;;;;;0.90;0.88;;;;;;;27.61;39.09;93310.88;2532249;23;20006;-87
2023/09/05 15:12:15;;;;;;;2.42;0.90;;;;;;;27.58;38.65;93309.91;2520552;23;20006;-88
2023/09/05 15:13:16;;;;;;;1.20;0.90;;;;;;;27.42;39.72;93313.63;2521291;23;20066;-86
2023/09/05 15:14:17;;;;;;;3.15;1.10;;;;;;;27.44;42.24;93311.13;2519578;23;20010;-85
2023/09/05 15:15:18;;;;;;;2.65;0.93;;;;;;;27.58;41.11;93307.19;2519851;23;20003;-85
2023/09/05 15:16:19;;;;;;;2.03;1.10;;;;;;;27.55;39.71;93308.22;2508191;23;20117;-85
2023/09/05 15:17:20;;;;;;;1.50;1.05;;;;;;;27.58;41.66;93311.94;2508061;23;20014;-86
2023/09/05 15:18:21;;;;;;;1.25;0.85;;;;;;;27.56;36.52;93304.19;2508243;23;20003;-87
2023/09/05 15:19:23;;;;;;;3.05;0.88;;;;;;;27.59;39.35;93314.16;2531851;23;20073;-86
2023/09/05 15:20:24;;;;;;;1.60;1.05;;;;;;;27.47;39.36;93307.31;2519695;23;20002;-87
2023/09/05 15:21:26;;;;;;;1.40;1.00;;;;;;;27.32;39.38;93302.31;2507874;23;20055;-85
2023/09/05 15:22:27;;;;;;;3.17;1.00;;;;;;;27.30;43.22;93312.31;2532766;23;20002;-86
2023/09/05 15:23:28;;;;;;;3.72;0.95;;;;;;;27.48;39.56;93311.56;2531662;23;20081;-87
2023/09/05 15:24:29;;;;;;;1.35;0.80;;;;;;;27.44;42.30;93313.88;2520177;23;20007;-85
2023/09/05 15:25:30;;;;;;;1.23;0.77;;;;;;;27.38;40.20;93306.97;2519714;23;20006;-88
2023/09/05 15:26:33;;;;;;;1.45;0.82;;;;;;;27.29;39.65;93297.84;2531968;23;20002;-85
2023/09/05 15:27:34;;;;;;;1.45;1.20;;;;;;;27.44;39.42;93307.63;2520437;23;20361;-86
2023/09/05 15:28:35;;;;;;;5.30;0.90;;;;;;;27.70;34.55;93304.25;2519792;23;20002;-86
2023/09/05 15:29:36;;;;;;;1.65;1.10;;;;;;;27.53;39.01;93301.78;2520315;23;20075;-89
2023/09/05 15:30:39;;;;;;;4.53;0.90;;;;;;;27.53;39.54;93307.25;2532325;23;20393;-86
2023/09/05 15:31:41;;;;;;;3.63;1.10;;;;;;;27.71;37.61;93303.00;2521240;23;20006;-86
2023/09/05 15:32:43;;;;;;;1.88;0.85;;;;;;;27.69;38.86;93306.25;2509203;23;20031;-88
2023/09/05 15:33:44;;;;;;;2.20;0.98;;;;;;;27.62;38.67;93306.88;2508705;23;20492;-88
2023/09/05 15:34:45;;;;;;;2.88;0.90;;;;;;;27.55;43.07;93299.22;2508659;23;20038;-88
2023/09/05 15:35:46;;;;;;;4.43;1.10;;;;;;;27.48;41.52;93311.56;2508544;23;20002;-88
2023/09/05 15:36:47;;;;;;;4.95;0.95;;;;;;;27.45;41.85;93303.63;2508918;23;20003;-86
2023/09/05 15:37:47;;;;;;;1.00;0.60;;;;;;;27.44;40.53;93297.41;2520316;23;20029;-85
2023/09/05 15:38:49;;;;;;;2.03;1.05;;;;;;;27.49;40.41;93299.31;2520625;23;20007;-87
2023/09/05 15:39:50;;;;;;;3.70;1.13;;;;;;;27.53;40.55;93305.25;2532866;23;20012;-87
2023/09/05 15:40:51;;;;;;;2.47;1.02;;;;;;;27.56;40.50;93306.94;2532803;23;20005;-85
2023/09/05 15:41:58;;;;;;;3.30;1.00;;;;;;;27.44;41.71;93302.13;2521729;23;20065;-86
2023/09/05 15:42:59;;;;;;;2.58;0.95;;;;;;;27.41;41.28;93303.94;2520352;23;20006;-85
2023/09/05 15:44:01;;;;;;;3.95;0.93;;;;;;;27.31;41.22;93305.56;2508615;23;20430;-86
2023/09/05 15:45:05;;;;;;;1.55;1.08;;;;;;;27.32;40.06;93299.56;2520403;23;20010;-86
2023/09/05 15:46:06;;;;;;;1.88;1.02;;;;;;;27.35;40.06;93300.53;2533457;23;20012;-87
2023/09/05 15:47:07;;;;;;;4.47;0.98;;;;;;;27.27;40.83;93297.63;2532714;23;20060;-87
2023/09/05 15:48:08;;;;;;;2.47;0.80;;;;;;;27.27;39.86;93294.88;2508539;23;20641;-85
2023/09/05 15:49:09;;;;;;;2.08;0.88;;;;;;;27.34;40.42;93291.53;2520628;23;20014;-87
2023/09/05 15:50:10;;;;;;;1.10;0.80;;;;;;;27.31;39.51;93297.34;2520332;23;20382;-89
2023/09/05 15:51:13;;;;;;;0.70;0.60;;;;;;;27.40;38.62;93287.97;2520359;23;20002;-88
2023/09/05 15:52:16;;;;;;;1.30;1.05;;;;;;;27.45;39.67;93298.88;2509279;23;20018;-85
2023/09/05 15:53:17;;;;;;;4.10;0.88;;;;;;;27.47;39.81;93292.84;2509349;23;20427;-87
2023/09/05 15:54:20;;;;;;;1.70;0.88;;;;;;;27.42;40.47;93294.41;2521049;23;20022;-88
2023/09/05 15:55:21;;;;;;;3.28;1.15;;;;;;;27.45;38.68;93296.13;2508960;23;20011;-87
2023/09/05 15:56:22;;;;;;;1.75;0.93;;;;;;;27.34;40.38;93288.03;2508725;23;20014;-89
2023/09/05 15:57:23;;;;;;;0.70;0.68;;;;;;;27.36;38.90;93302.00;2532988;23;20029;-85
2023/09/05 15:58:24;;;;;;;1.50;0.90;;;;;;;27.18;39.57;93298.00;2533115;23;20037;-90
2023/09/05 15:59:27;;;;;;;1.75;1.00;;;;;;;27.14;41.58;93300.31;2520784;23;20030;-84
2023/09/05 16:00:29;;;;;;;3.47;1.02;;;;;;;27.18;38.77;93298.00;2521002;23;20527;-87
2023/09/05 16:01:34;;;;;;;1.15;1.05;;;;;;;27.28;41.38;93293.63;2521728;23;20011;-87
2023/09/05 16:02:35;;;;;;;1.98;1.08;;;;;;;27.39;42.27;93295.44;2521889;23;20453;-85
2023/09/05 16:03:37;;;;;;;5.25;1.17;;;;;;;27.06;42.15;93296.63;2520632;23;20026;-86
2023/09/05 16:04:39;;;;;;;3.20;0.95;;;;;;;27.26;40.76;93300.88;2521235;23;20006;-86
2023/09/05 16:05:41;;;;;;;0.90;0.90;;;;;;;27.39;41.15;93295.44;2509948;23;20007;-85
2023/09/05 16:06:50;;;;;;;3.90;1.10;;;;;;;27.12;43.25;93294.56;2513371;23;20002;-87
2023/09/05 16:07:52;;;;;;;1.98;1.02;;;;;;;27.16;42.93;93299.78;2522965;23;20009;-87
2023/09/05 16:08:53;;;;;;;5.78;1.33;;;;;;;27.14;42.85;93297.56;2533504;23;20441;-88
2023/09/05 16:09:54;;;;;;;4.10;1.40;;;;;;;27.26;44.08;93292.66;2521149;23;20013;-86
2023/09/05 16:11:09;;;;;;;3.00;1.23;;;;;;;27.24;43.71;93295.19;2509483;23;20010;-86
2023/09/05 16:12:26;;;;;;;2.20;1.02;;;;;;;27.38;41.89;93298.72;2523975;23;20010;-87
2023/09/05 16:13:27;;;;;;;1.45;1.15;;;;;;;27.23;43.37;93291.69;2515920;23;20006;-85
2023/09/05 16:14:28;;;;;;;1.13;0.75;;;;;;;27.26;43.31;93290.66;2509989;23;20005;-85
2023/09/05 16:15:29;;;;;;;3.40;1.02;;;;;;;27.25;42.58;93291.91;2521743;23;20049;-88
2023/09/05 16:16:38;;;;;;;4.38;1.40;;;;;;;27.29;41.33;93294.34;2522493;23;20006;-87
2023/09/05 16:17:39;;;;;;;2.75;1.00;;;;;;;27.26;45.42;93300.88;2510937;23;20009;-86
2023/09/05 16:18:40;;;;;;;4.35;1.33;;;;;;;27.21;44.15;93307.19;2509359;23;20402;-83
2023/09/05 16:19:41;;;;;;;4.90;1.30;;;;;;;27.11;43.76;93310.31;2533621;23;20002;-85
2023/09/05 16:20:42;;;;;;;1.40;1.20;;;;;;;27.15;43.43;93301.03;2545434;23;20426;-85
2023/09/05 16:21:44;;;;;;;2.60;1.33;;;;;;;27.25;42.33;93308.38;2521487;23;20057;-86
2023/09/05 16:22:45;;;;;;;1.67;1.30;;;;;;;27.27;42.90;93307.88;2509634;23;20010;-87
2023/09/05 16:23:46;;;;;;;2.35;1.17;;;;;;;27.16;43.68;93308.00;2509267;23;20011;-84
2023/09/05 16:24:47;;;;;;;1.42;1.13;;;;;;;27.21;43.54;93310.66;2509664;23;20464;-88
2023/09/05 16:25:50;;;;;;;1.00;0.90;;;;;;;27.28;43.11;93317.59;2509429;23;20350;-88
2023/09/05 16:26:51;;;;;;;1.85;1.45;;;;;;;27.30;44.08;93318.53;2521703;23;20006;-85
2023/09/05 16:27:52;;;;;;;2.17;1.23;;;;;;;27.25;45.44;93315.88;2521588;23;20089;-87
2023/09/05 16:28:53;;;;;;;4.28;1.17;;;;;;;27.00;43.80;93313.19;2521174;23;20402;-87
2023/09/05 16:29:54;;;;;;;2.67;1.42;;;;;;;27.16;44.98;93316.25;2509387;23;20356;-87
2023/09/05 16:30:56;;;;;;;3.05;1.17;;;;;;;27.08;44.74;93311.31;2533637;23;20002;-84
2023/09/05 16:32:00;;;;;;;3.42;1.30;;;;;;;27.04;45.11;93313.63;2545712;23;20052;-86
2023/09/05 16:33:01;;;;;;;3.38;1.13;;;;;;;27.20;45.20;93317.44;2521742;23;20006;-85
2023/09/05 16:34:04;;;;;;;2.65;1.05;;;;;;;27.37;44.81;93319.94;2521439;23;20025;-87
2023/09/05 16:35:05;;;;;;;1.42;1.23;;;;;;;27.30;43.95;93323.28;2521716;23;20081;-87